createdAt,value
2023-07-23T00:00:59.293Z,93768.61
2023-07-23T00:06:06.824Z,93761.77
2023-07-23T00:11:13.803Z,93770.34
2023-07-23T00:16:21.028Z,93771.16
2023-07-23T00:21:28.289Z,93782.23
2023-07-23T00:26:35.814Z,93782.68
2023-07-23T00:31:43.182Z,93763.10
2023-07-23T00:36:50.161Z,93769.88
2023-07-23T00:41:57.438Z,93763.10
2023-07-23T00:47:06.377Z,93761.58
2023-07-23T00:52:14.121Z,93770.34
2023-07-23T00:57:21.264Z,93761.08
2023-07-23T01:02:31.597Z,93758.06
2023-07-23T01:07:40.928Z,93751.17
2023-07-23T01:12:47.874Z,93756.97
2023-07-23T01:17:56.509Z,93745.80
2023-07-23T01:23:03.567Z,93744.18
2023-07-23T01:28:10.505Z,93744.44
2023-07-23T01:33:18.852Z,93740.11
2023-07-23T01:38:26.868Z,93740.70
2023-07-23T01:43:34.584Z,93730.59
2023-07-23T01:48:41.641Z,93737.27
2023-07-23T01:53:48.805Z,93722.59
2023-07-23T01:58:56.063Z,93727.63
2023-07-23T02:04:03.146Z,93717.75
2023-07-23T02:09:10.305Z,93726.31
2023-07-23T02:14:17.892Z,93733.02
2023-07-23T02:19:24.802Z,93727.33
2023-07-23T02:24:31.849Z,93738.72
2023-07-23T02:29:40.102Z,93746.13
2023-07-23T02:34:47.972Z,93750.19
2023-07-23T02:39:56.238Z,93747.20
2023-07-23T02:45:03.025Z,93752.69
2023-07-23T02:50:10.808Z,93750.80
2023-07-23T02:55:17.718Z,93744.27
2023-07-23T03:00:48.493Z,93743.97
2023-07-23T03:05:55.313Z,93748.02
2023-07-23T03:11:02.356Z,93740.63
2023-07-23T03:16:09.191Z,93740.94
2023-07-23T03:21:16.372Z,93739.16
2023-07-23T03:26:23.309Z,93742.51
2023-07-23T03:31:31.081Z,93739.27
2023-07-23T03:36:38.273Z,93738.84
2023-07-23T03:41:46.959Z,93737.75
2023-07-23T03:47:22.598Z,93740.52
2023-07-23T03:52:29.725Z,93726.67
2023-07-23T03:57:36.784Z,93729.52
2023-07-23T04:02:45.235Z,93733.77
2023-07-23T04:07:52.104Z,93736.83
2023-07-23T04:12:59.043Z,93737.53
2023-07-23T04:18:07.390Z,93739.53
2023-07-23T04:23:14.397Z,93739.35
2023-07-23T04:28:21.431Z,93742.33
2023-07-23T04:33:28.136Z,93738.30
2023-07-23T04:38:35.214Z,93745.89
2023-07-23T04:43:44.398Z,93745.47
2023-07-23T04:48:51.536Z,93749.63
2023-07-23T04:53:58.326Z,93756.11
2023-07-23T04:59:05.117Z,93760.05
2023-07-23T05:04:12.030Z,93762.17
2023-07-23T05:09:18.909Z,93752.95
2023-07-23T05:14:25.873Z,93752.80
2023-07-23T05:19:33.224Z,93756.98
2023-07-23T05:24:40.257Z,93750.37
2023-07-23T05:29:47.420Z,93753.95
2023-07-23T05:34:55.172Z,93757.27
2023-07-23T05:40:02.083Z,93762.12
2023-07-23T05:45:10.314Z,93776.72
2023-07-23T05:50:17.377Z,93772.38
2023-07-23T05:55:24.133Z,93767.16
2023-07-23T06:00:30.995Z,93772.47
2023-07-23T06:05:37.861Z,93776.48
2023-07-23T06:10:45.353Z,93775.89
2023-07-23T06:15:52.137Z,93773.77
2023-07-23T06:20:58.974Z,93763.45
2023-07-23T06:26:05.831Z,93768.50
2023-07-23T06:31:12.920Z,93766.97
2023-07-23T06:36:19.953Z,93766.78
2023-07-23T06:41:27.733Z,93765.18
2023-07-23T06:46:35.086Z,93760.76
2023-07-23T06:51:44.120Z,93759.67
2023-07-23T06:56:52.496Z,93763.83
2023-07-23T07:01:59.566Z,93758.85
2023-07-23T07:07:06.904Z,93759.96
2023-07-23T07:12:13.861Z,93761.84
2023-07-23T07:17:21.054Z,93770.92
2023-07-23T07:22:27.934Z,93768.48
2023-07-23T07:27:40.336Z,93757.20
2023-07-23T07:32:49.107Z,93758.60
2023-07-23T07:37:55.997Z,93762.15
2023-07-23T07:43:03.099Z,93759.00
2023-07-23T07:48:10.573Z,93753.79
2023-07-23T07:53:17.746Z,93755.95
2023-07-23T07:58:28.809Z,93752.44
2023-07-23T08:03:37.858Z,93755.87
2023-07-23T08:08:45.934Z,93753.95
2023-07-23T08:13:54.129Z,93747.77
2023-07-23T08:19:01.698Z,93751.26
2023-07-23T08:24:11.105Z,93743.70
2023-07-23T08:29:20.676Z,93744.98
2023-07-23T08:34:29.152Z,93746.61
2023-07-23T08:39:36.669Z,93750.11
2023-07-23T08:45:18.539Z,93737.74
2023-07-23T08:50:26.135Z,93733.80
2023-07-23T08:55:34.539Z,93732.28
2023-07-23T09:00:47.111Z,93734.75
2023-07-23T09:05:54.345Z,93731.38
2023-07-23T09:11:03.352Z,93735.53
2023-07-23T09:16:10.146Z,93728.69
2023-07-23T09:21:26.920Z,93729.01
2023-07-23T09:26:34.948Z,93713.67
2023-07-23T09:31:49.554Z,93715.61
2023-07-23T09:36:57.992Z,93713.93
2023-07-23T09:42:07.787Z,93706.28
2023-07-23T09:47:15.620Z,93708.61
2023-07-23T09:52:28.364Z,93700.08
2023-07-23T09:57:37.628Z,93704.16
2023-07-23T10:02:48.311Z,93697.22
2023-07-23T10:07:57.133Z,93697.94
2023-07-23T10:13:04.305Z,93692.19
2023-07-23T10:18:13.791Z,93695.17
2023-07-23T10:23:20.660Z,93688.95
2023-07-23T10:28:27.562Z,93690.03
2023-07-23T10:33:35.174Z,93567.52
2023-07-23T10:38:42.069Z,93690.58
2023-07-23T10:43:51.161Z,93684.23
2023-07-23T10:49:00.909Z,93679.17
2023-07-23T10:54:08.111Z,93673.70
2023-07-23T10:59:23.535Z,93669.39
2023-07-23T11:04:30.985Z,93666.23
2023-07-23T11:09:39.808Z,93662.66
2023-07-23T11:14:47.323Z,93662.72
2023-07-23T11:19:56.596Z,93657.36
2023-07-23T11:25:04.218Z,93656.12
2023-07-23T11:30:16.047Z,93649.56
2023-07-23T11:35:23.222Z,93643.58
2023-07-23T11:40:30.045Z,93640.34
2023-07-23T11:45:51.099Z,93637.34
2023-07-23T11:50:58.367Z,93640.70
2023-07-23T11:56:13.688Z,93634.56
2023-07-23T12:01:21.329Z,93630.20
2023-07-23T12:06:31.625Z,93638.63
2023-07-23T12:11:42.127Z,93623.03
2023-07-23T12:16:53.471Z,93617.68
2023-07-23T12:22:00.637Z,93619.66
2023-07-23T12:27:09.713Z,93612.84
2023-07-23T12:32:19.087Z,93605.72
2023-07-23T12:37:26.059Z,93590.76
2023-07-23T12:42:34.238Z,93582.20
2023-07-23T12:47:41.478Z,93586.64
2023-07-23T12:52:48.671Z,93588.45
2023-07-23T12:57:56.180Z,93588.28
2023-07-23T13:03:04.163Z,93581.53
2023-07-23T13:08:11.487Z,93574.20
2023-07-23T13:13:18.514Z,93568.16
2023-07-23T13:18:26.383Z,93561.45
2023-07-23T13:23:34.246Z,93561.48
2023-07-23T13:28:41.328Z,93555.53
2023-07-23T13:33:48.386Z,93551.89
2023-07-23T13:38:55.648Z,93557.70
2023-07-23T13:44:04.878Z,93550.55
2023-07-23T13:49:12.129Z,93546.69
2023-07-23T13:54:19.188Z,93535.01
2023-07-23T13:59:37.726Z,93530.52
2023-07-23T14:04:44.864Z,93525.54
2023-07-23T14:09:52.278Z,93532.84
2023-07-23T14:14:59.938Z,93527.05
2023-07-23T14:20:08.256Z,93518.53
2023-07-23T14:25:15.067Z,93520.30
2023-07-23T14:30:24.052Z,93518.05
2023-07-23T14:35:31.795Z,93504.80
2023-07-23T14:40:38.624Z,93501.88
2023-07-23T14:45:45.488Z,93499.02
2023-07-23T14:50:52.292Z,93508.50
2023-07-23T14:55:59.111Z,93490.66
2023-07-23T15:01:06.012Z,93499.77
2023-07-23T15:06:12.791Z,93499.67
2023-07-23T15:11:19.644Z,93483.36
2023-07-23T15:16:26.770Z,93481.28
2023-07-23T15:21:36.556Z,93472.47
2023-07-23T15:26:43.746Z,93324.77
2023-07-23T15:31:50.669Z,93470.70
2023-07-23T15:36:57.477Z,93462.30
2023-07-23T15:42:05.896Z,93458.75
2023-07-23T15:47:13.300Z,93458.19
2023-07-23T15:52:20.432Z,93461.29
2023-07-23T15:57:27.508Z,93451.02
2023-07-23T16:02:34.681Z,93446.47
2023-07-23T16:07:41.601Z,93445.30
2023-07-23T16:12:48.742Z,93438.41
2023-07-23T16:17:56.284Z,93434.28
2023-07-23T16:23:03.254Z,93432.55
2023-07-23T16:28:11.603Z,93435.62
2023-07-23T16:33:19.314Z,93426.62
2023-07-23T16:38:30.290Z,93423.45
2023-07-23T16:43:39.975Z,93417.05
2023-07-23T16:48:46.923Z,93415.35
2023-07-23T16:53:53.841Z,93410.42
2023-07-23T16:59:00.694Z,93416.14
2023-07-23T17:04:07.556Z,93422.52
2023-07-23T17:09:14.464Z,93416.01
2023-07-23T17:14:23.155Z,93425.33
2023-07-23T17:19:30.283Z,93419.11
2023-07-23T17:24:37.188Z,93416.70
2023-07-23T17:29:44.338Z,93414.01
2023-07-23T17:34:51.202Z,93420.16
2023-07-23T17:39:58.632Z,93415.86
2023-07-23T17:45:06.595Z,93420.09
2023-07-23T17:50:20.222Z,93414.34
2023-07-23T17:55:27.472Z,93417.80
2023-07-23T18:00:34.293Z,93416.70
2023-07-23T18:05:42.213Z,93423.19
2023-07-23T18:10:49.663Z,93416.99
2023-07-23T18:15:56.914Z,93416.55
2023-07-23T18:21:03.826Z,93430.11
2023-07-23T18:26:10.915Z,93420.04
2023-07-23T18:31:34.639Z,93415.06
2023-07-23T18:36:27.957Z,93423.36
2023-07-23T18:41:38.050Z,93423.80
2023-07-23T18:46:45.426Z,93436.99
2023-07-23T18:51:52.517Z,93437.10
2023-07-23T18:56:59.400Z,93440.70
2023-07-23T19:02:06.911Z,93444.88
2023-07-23T19:07:14.436Z,93451.14
2023-07-23T19:12:21.337Z,93461.75
2023-07-23T19:17:28.678Z,93483.03
2023-07-23T19:22:35.510Z,93493.01
2023-07-23T19:27:42.661Z,93492.02
2023-07-23T19:32:49.611Z,93504.88
2023-07-23T19:37:56.685Z,93491.60
2023-07-23T19:43:03.554Z,93509.33
2023-07-23T19:48:10.592Z,93514.73
2023-07-23T19:53:17.654Z,93519.31
2023-07-23T19:58:26.355Z,93536.05
2023-07-23T20:03:33.499Z,93545.86
2023-07-23T20:08:40.752Z,93548.47
2023-07-23T20:13:48.309Z,93555.40
2023-07-23T20:18:55.342Z,93540.34
2023-07-23T20:24:02.591Z,93531.06
2023-07-23T20:29:10.419Z,93524.61
2023-07-23T20:34:18.388Z,93537.24
2023-07-23T20:39:27.148Z,93549.34
2023-07-23T20:44:36.732Z,93542.70
2023-07-23T20:49:43.488Z,93536.98
2023-07-23T20:54:50.472Z,93526.80
2023-07-23T20:59:57.313Z,93520.56
2023-07-23T21:05:05.875Z,93520.98
2023-07-23T21:10:13.127Z,93513.14
2023-07-23T21:15:19.976Z,93505.30
2023-07-23T21:20:26.829Z,93503.95
2023-07-23T21:25:34.219Z,93490.48
2023-07-23T21:30:41.280Z,93487.70
2023-07-23T21:35:50.336Z,93489.80
2023-07-23T21:40:57.812Z,93486.53
2023-07-23T21:46:04.828Z,93494.65
2023-07-23T21:51:11.881Z,93504.39
2023-07-23T21:56:18.779Z,93503.52
2023-07-23T22:01:26.697Z,93502.59
2023-07-23T22:06:33.559Z,93505.71
2023-07-23T22:11:40.605Z,93502.69
2023-07-23T22:16:47.581Z,93507.12
2023-07-23T22:21:54.431Z,93494.77
2023-07-23T22:27:01.466Z,93343.63
2023-07-23T22:32:09.245Z,93499.82
2023-07-23T22:37:16.843Z,93497.31
2023-07-23T22:42:24.348Z,93355.66
2023-07-23T22:47:31.287Z,93483.52
2023-07-23T22:52:38.266Z,93492.08
2023-07-23T22:57:45.382Z,93491.14
2023-07-23T23:02:54.422Z,93493.27
2023-07-23T23:08:01.709Z,93484.16
2023-07-23T23:13:08.900Z,93473.16
2023-07-23T23:18:16.994Z,93465.71
2023-07-23T23:23:24.166Z,93464.52
2023-07-23T23:28:31.267Z,93472.94
2023-07-23T23:33:38.356Z,93473.50
2023-07-23T23:38:45.398Z,93469.03
2023-07-23T23:43:52.748Z,93457.59
2023-07-23T23:48:59.652Z,93450.53
2023-07-23T23:54:06.750Z,93451.47
2023-07-23T23:59:13.907Z,93451.45
